sensor_id;sensor_type;location;lat;lon;timestamp;pressure;altitude;pressure_sealevel;temperature;humidity
64908;BME280;64365;-1.756;110.040;2023-01-29T00:01:03;102930.66;;;6.19;73.46
64908;BME280;64365;-1.756;110.040;2023-01-29T00:03:31;102933.47;;;6.28;74.09
64908;BME280;64365;-1.756;110.040;2023-01-29T00:05:58;102924.22;;;6.31;73.03
64908;BME280;64365;-1.756;110.040;2023-01-29T00:08:24;102924.25;;;6.26;72.88
64908;BME280;64365;-1.756;110.040;2023-01-29T00:10:51;102924.22;;;6.31;74.00
64908;BME280;64365;-1.756;110.040;2023-01-29T00:13:18;102914.94;;;6.33;73.58
64908;BME280;64365;-1.756;110.040;2023-01-29T00:15:52;102918.66;;;6.32;73.45
64908;BME280;64365;-1.756;110.040;2023-01-29T00:18:20;102912.84;;;6.30;73.70
64908;BME280;64365;-1.756;110.040;2023-01-29T00:20:48;102915.16;;;6.37;73.72
64908;BME280;64365;-1.756;110.040;2023-01-29T00:23:15;102918.31;;;6.39;73.78
64908;BME280;64365;-1.756;110.040;2023-01-29T00:25:41;102920.91;;;6.44;73.47
64908;BME280;64365;-1.756;110.040;2023-01-29T00:28:08;102920.31;;;6.47;74.09
64908;BME280;64365;-1.756;110.040;2023-01-29T00:30:36;102925.25;;;6.54;73.15
64908;BME280;64365;-1.756;110.040;2023-01-29T00:33:03;102919.13;;;6.58;75.04
64908;BME280;64365;-1.756;110.040;2023-01-29T00:35:30;102911.91;;;6.64;73.78
64908;BME280;64365;-1.756;110.040;2023-01-29T00:37:58;102914.28;;;6.66;73.83
64908;BME280;64365;-1.756;110.040;2023-01-29T00:40:25;102903.63;;;6.71;73.38
64908;BME280;64365;-1.756;110.040;2023-01-29T00:42:52;102904.06;;;6.59;72.76
64908;BME280;64365;-1.756;110.040;2023-01-29T00:45:36;102899.75;;;6.44;75.09
64908;BME280;64365;-1.756;110.040;2023-01-29T00:48:03;102900.41;;;6.55;74.89
64908;BME280;64365;-1.756;110.040;2023-01-29T00:50:30;102901.84;;;6.66;74.75
64908;BME280;64365;-1.756;110.040;2023-01-29T00:52:57;102892.06;;;6.67;73.82
64908;BME280;64365;-1.756;110.040;2023-01-29T00:55:25;102895.06;;;6.60;73.92
64908;BME280;64365;-1.756;110.040;2023-01-29T00:57:51;102903.97;;;6.64;74.99
64908;BME280;64365;-1.756;110.040;2023-01-29T01:00:18;102897.56;;;6.70;73.82
64908;BME280;64365;-1.756;110.040;2023-01-29T01:02:45;102891.13;;;6.57;73.46
64908;BME280;64365;-1.756;110.040;2023-01-29T01:05:29;102886.16;;;6.32;73.18
64908;BME280;64365;-1.756;110.040;2023-01-29T01:07:57;102888.41;;;6.44;73.23
64908;BME280;64365;-1.756;110.040;2023-01-29T01:10:26;102880.47;;;6.44;75.29
64908;BME280;64365;-1.756;110.040;2023-01-29T01:12:54;102888.91;;;6.46;75.23
64908;BME280;64365;-1.756;110.040;2023-01-29T01:15:23;102881.28;;;6.44;75.64
64908;BME280;64365;-1.756;110.040;2023-01-29T01:17:53;102884.56;;;6.55;77.23
64908;BME280;64365;-1.756;110.040;2023-01-29T01:20:20;102893.94;;;6.66;76.31
64908;BME280;64365;-1.756;110.040;2023-01-29T01:22:48;102902.56;;;6.72;76.39
64908;BME280;64365;-1.756;110.040;2023-01-29T01:25:14;102911.44;;;6.81;76.06
64908;BME280;64365;-1.756;110.040;2023-01-29T01:27:43;102917.78;;;6.80;74.00
64908;BME280;64365;-1.756;110.040;2023-01-29T01:30:11;102913.31;;;6.81;74.30
64908;BME280;64365;-1.756;110.040;2023-01-29T01:32:38;102914.06;;;6.81;73.91
64908;BME280;64365;-1.756;110.040;2023-01-29T01:35:06;102916.66;;;6.86;75.26
64908;BME280;64365;-1.756;110.040;2023-01-29T01:37:33;102902.94;;;6.84;74.88
64908;BME280;64365;-1.756;110.040;2023-01-29T01:40:02;102903.16;;;6.88;73.82
64908;BME280;64365;-1.756;110.040;2023-01-29T01:42:30;102901.94;;;6.80;73.77
64908;BME280;64365;-1.756;110.040;2023-01-29T01:44:59;102895.81;;;6.85;74.04
64908;BME280;64365;-1.756;110.040;2023-01-29T01:47:34;102893.16;;;6.85;74.91
64908;BME280;64365;-1.756;110.040;2023-01-29T01:50:06;102901.00;;;6.90;73.66
64908;BME280;64365;-1.756;110.040;2023-01-29T01:52:37;102898.63;;;6.88;73.93
64908;BME280;64365;-1.756;110.040;2023-01-29T01:55:07;102896.50;;;6.90;73.35
64908;BME280;64365;-1.756;110.040;2023-01-29T01:57:35;102898.63;;;6.88;72.88
64908;BME280;64365;-1.756;110.040;2023-01-29T02:00:06;102905.44;;;6.95;75.19
64908;BME280;64365;-1.756;110.040;2023-01-29T02:02:36;102902.94;;;6.84;75.44
64908;BME280;64365;-1.756;110.040;2023-01-29T02:05:21;102909.22;;;6.88;73.45
64908;BME280;64365;-1.756;110.040;2023-01-29T02:08:05;102911.66;;;6.85;74.03
64908;BME280;64365;-1.756;110.040;2023-01-29T02:10:49;102905.63;;;6.79;74.21
64908;BME280;64365;-1.756;110.040;2023-01-29T02:13:16;102900.34;;;6.79;72.74
64908;BME280;64365;-1.756;110.040;2023-01-29T02:15:45;102897.00;;;6.73;72.24
64908;BME280;64365;-1.756;110.040;2023-01-29T02:18:13;102898.34;;;6.71;72.98
64908;BME280;64365;-1.756;110.040;2023-01-29T02:20:43;102882.78;;;6.69;72.51
64908;BME280;64365;-1.756;110.040;2023-01-29T02:23:42;102901.78;;;6.71;73.88
64908;BME280;64365;-1.756;110.040;2023-01-29T02:29:17;102912.50;;;6.80;73.25
64908;BME280;64365;-1.756;110.040;2023-01-29T02:31:58;102913.72;;;6.88;74.91
64908;BME280;64365;-1.756;110.040;2023-01-29T02:34:36;102917.09;;;6.94;73.23
64908;BME280;64365;-1.756;110.040;2023-01-29T02:37:28;102909.44;;;6.92;73.32
64908;BME280;64365;-1.756;110.040;2023-01-29T02:40:06;102917.88;;;6.94;72.00
64908;BME280;64365;-1.756;110.040;2023-01-29T02:42:37;102912.38;;;6.90;71.61
64908;BME280;64365;-1.756;110.040;2023-01-29T02:45:12;102915.31;;;6.89;72.04
64908;BME280;64365;-1.756;110.040;2023-01-29T02:47:44;102907.66;;;6.87;72.35
64908;BME280;64365;-1.756;110.040;2023-01-29T02:50:16;102908.66;;;6.91;74.04
64908;BME280;64365;-1.756;110.040;2023-01-29T02:52:51;102913.38;;;6.95;72.21
64908;BME280;64365;-1.756;110.040;2023-01-29T02:55:24;102906.72;;;6.97;73.95
64908;BME280;64365;-1.756;110.040;2023-01-29T02:57:56;102905.38;;;7.00;72.04
64908;BME280;64365;-1.756;110.040;2023-01-29T03:00:29;102901.72;;;6.96;72.69
64908;BME280;64365;-1.756;110.040;2023-01-29T03:03:02;102895.63;;;6.95;74.30
64908;BME280;64365;-1.756;110.040;2023-01-29T03:05:37;102892.34;;;6.84;73.41
64908;BME280;64365;-1.756;110.040;2023-01-29T03:08:11;102887.72;;;6.76;72.44
64908;BME280;64365;-1.756;110.040;2023-01-29T03:10:43;102892.88;;;6.67;73.74
64908;BME280;64365;-1.756;110.040;2023-01-29T03:13:14;102891.22;;;6.52;74.83
64908;BME280;64365;-1.756;110.040;2023-01-29T03:15:46;102894.78;;;6.62;74.42
64908;BME280;64365;-1.756;110.040;2023-01-29T03:18:17;102883.94;;;6.63;73.83
64908;BME280;64365;-1.756;110.040;2023-01-29T03:20:49;102887.34;;;6.64;74.33
64908;BME280;64365;-1.756;110.040;2023-01-29T03:23:21;102878.47;;;6.54;73.27
64908;BME280;64365;-1.756;110.040;2023-01-29T03:25:53;102878.28;;;6.51;74.64
64908;BME280;64365;-1.756;110.040;2023-01-29T03:28:43;102868.56;;;6.46;75.21
64908;BME280;64365;-1.756;110.040;2023-01-29T03:31:29;102862.69;;;6.49;74.92
64908;BME280;64365;-1.756;110.040;2023-01-29T03:34:16;102854.22;;;6.52;75.24
64908;BME280;64365;-1.756;110.040;2023-01-29T03:36:52;102854.34;;;6.61;74.98
64908;BME280;64365;-1.756;110.040;2023-01-29T03:39:21;102855.78;;;6.53;74.94
64908;BME280;64365;-1.756;110.040;2023-01-29T03:41:53;102846.34;;;6.47;76.51
64908;BME280;64365;-1.756;110.040;2023-01-29T03:44:29;102848.47;;;6.45;76.23
64908;BME280;64365;-1.756;110.040;2023-01-29T03:47:09;102839.63;;;6.36;76.20
64908;BME280;64365;-1.756;110.040;2023-01-29T03:49:49;102840.81;;;6.24;74.55
64908;BME280;64365;-1.756;110.040;2023-01-29T03:52:22;102833.59;;;6.11;75.41
64908;BME280;64365;-1.756;110.040;2023-01-29T03:54:55;102846.78;;;6.11;76.81
64908;BME280;64365;-1.756;110.040;2023-01-29T03:57:29;102836.69;;;6.18;76.46
64908;BME280;64365;-1.756;110.040;2023-01-29T04:00:02;102835.09;;;6.17;76.57
64908;BME280;64365;-1.756;110.040;2023-01-29T04:02:37;102839.88;;;6.15;74.95
64908;BME280;64365;-1.756;110.040;2023-01-29T04:05:11;102822.75;;;6.13;75.38
64908;BME280;64365;-1.756;110.040;2023-01-29T04:07:41;102831.47;;;6.13;74.64
64908;BME280;64365;-1.756;110.040;2023-01-29T04:10:12;102836.50;;;6.10;75.03
64908;BME280;64365;-1.756;110.040;2023-01-29T04:12:43;102831.81;;;6.06;74.64
64908;BME280;64365;-1.756;110.040;2023-01-29T04:15:13;102824.72;;;6.02;74.23
64908;BME280;64365;-1.756;110.040;2023-01-29T04:17:47;102821.59;;;6.00;75.56
64908;BME280;64365;-1.756;110.040;2023-01-29T04:20:15;102829.66;;;6.09;76.13
64908;BME280;64365;-1.756;110.040;2023-01-29T04:22:44;102825.91;;;6.15;77.36
64908;BME280;64365;-1.756;110.040;2023-01-29T04:25:13;102826.97;;;6.14;75.39
64908;BME280;64365;-1.756;110.040;2023-01-29T04:27:44;102815.69;;;6.08;75.53
64908;BME280;64365;-1.756;110.040;2023-01-29T04:30:22;102822.53;;;6.09;73.84
64908;BME280;64365;-1.756;110.040;2023-01-29T04:33:06;102813.66;;;6.00;74.46
64908;BME280;64365;-1.756;110.040;2023-01-29T04:35:46;102811.03;;;6.00;75.51
64908;BME280;64365;-1.756;110.040;2023-01-29T04:38:27;102810.50;;;5.98;77.36
64908;BME280;64365;-1.756;110.040;2023-01-29T04:41:02;102805.22;;;5.98;74.85
64908;BME280;64365;-1.756;110.040;2023-01-29T04:43:37;102800.97;;;6.02;74.85
64908;BME280;64365;-1.756;110.040;2023-01-29T04:46:12;102800.47;;;6.00;74.99
64908;BME280;64365;-1.756;110.040;2023-01-29T04:48:57;102796.84;;;5.90;73.93
64908;BME280;64365;-1.756;110.040;2023-01-29T04:51:34;102793.53;;;5.80;75.00
64908;BME280;64365;-1.756;110.040;2023-01-29T04:54:08;102789.13;;;5.75;74.58
64908;BME280;64365;-1.756;110.040;2023-01-29T04:56:41;102788.59;;;5.73;74.72
64908;BME280;64365;-1.756;110.040;2023-01-29T04:59:16;102787.75;;;5.78;76.08
64908;BME280;64365;-1.756;110.040;2023-01-29T05:01:45;102784.31;;;5.77;75.33
64908;BME280;64365;-1.756;110.040;2023-01-29T05:04:15;102787.75;;;5.78;74.68
64908;BME280;64365;-1.756;110.040;2023-01-29T05:06:44;102785.00;;;5.64;73.99
64908;BME280;64365;-1.756;110.040;2023-01-29T05:09:13;102778.22;;;5.57;74.30
64908;BME280;64365;-1.756;110.040;2023-01-29T05:11:41;102775.97;;;5.46;74.63
64908;BME280;64365;-1.756;110.040;2023-01-29T05:14:10;102782.63;;;5.38;75.41
64908;BME280;64365;-1.756;110.040;2023-01-29T05:16:42;102781.50;;;5.44;75.21
64908;BME280;64365;-1.756;110.040;2023-01-29T05:19:10;102787.28;;;5.46;74.96
64908;BME280;64365;-1.756;110.040;2023-01-29T05:21:40;102796.00;;;5.47;75.59
64908;BME280;64365;-1.756;110.040;2023-01-29T05:24:11;102791.44;;;5.52;74.24
64908;BME280;64365;-1.756;110.040;2023-01-29T05:26:38;102789.31;;;5.54;76.11
64908;BME280;64365;-1.756;110.040;2023-01-29T05:29:23;102777.88;;;5.64;75.58
64908;BME280;64365;-1.756;110.040;2023-01-29T05:31:50;102773.81;;;5.72;74.73
64908;BME280;64365;-1.756;110.040;2023-01-29T05:34:16;102773.00;;;5.77;73.55
64908;BME280;64365;-1.756;110.040;2023-01-29T05:36:44;102783.16;;;5.64;74.44
64908;BME280;64365;-1.756;110.040;2023-01-29T05:39:11;102776.31;;;5.63;75.58
64908;BME280;64365;-1.756;110.040;2023-01-29T05:41:37;102782.03;;;5.70;75.08
64908;BME280;64365;-1.756;110.040;2023-01-29T05:44:04;102783.75;;;5.80;75.11
64908;BME280;64365;-1.756;110.040;2023-01-29T05:46:31;102786.69;;;5.79;75.48
64908;BME280;64365;-1.756;110.040;2023-01-29T05:48:58;102778.47;;;5.80;75.23
64908;BME280;64365;-1.756;110.040;2023-01-29T05:51:24;102783.22;;;5.83;75.19
64908;BME280;64365;-1.756;110.040;2023-01-29T05:53:52;102767.19;;;5.74;75.04
64908;BME280;64365;-1.756;110.040;2023-01-29T05:56:19;102760.34;;;5.73;75.25
64908;BME280;64365;-1.756;110.040;2023-01-29T05:58:45;102755.69;;;5.65;74.14
64908;BME280;64365;-1.756;110.040;2023-01-29T06:01:13;102757.03;;;5.63;74.53
64908;BME280;64365;-1.756;110.040;2023-01-29T06:03:40;102753.38;;;5.59;74.26
64908;BME280;64365;-1.756;110.040;2023-01-29T06:06:07;102751.66;;;5.49;75.38
64908;BME280;64365;-1.756;110.040;2023-01-29T06:08:33;102739.47;;;5.53;75.68
64908;BME280;64365;-1.756;110.040;2023-01-29T06:11:02;102745.56;;;5.53;76.06
64908;BME280;64365;-1.756;110.040;2023-01-29T06:13:29;102748.13;;;5.59;75.35
64908;BME280;64365;-1.756;110.040;2023-01-29T06:15:55;102740.94;;;5.64;74.90
64908;BME280;64365;-1.756;110.040;2023-01-29T06:18:22;102743.06;;;5.62;74.92
64908;BME280;64365;-1.756;110.040;2023-01-29T06:20:49;102736.78;;;5.58;74.79
64908;BME280;64365;-1.756;110.040;2023-01-29T06:23:15;102735.25;;;5.52;74.92
64908;BME280;64365;-1.756;110.040;2023-01-29T06:25:42;102735.44;;;5.61;74.94
64908;BME280;64365;-1.756;110.040;2023-01-29T06:28:10;102731.84;;;5.51;73.84
64908;BME280;64365;-1.756;110.040;2023-01-29T06:30:36;102733.44;;;5.52;75.62
64908;BME280;64365;-1.756;110.040;2023-01-29T06:33:03;102725.00;;;5.50;74.57
64908;BME280;64365;-1.756;110.040;2023-01-29T06:35:29;102728.88;;;5.58;74.75
64908;BME280;64365;-1.756;110.040;2023-01-29T06:37:56;102722.59;;;5.54;73.82
64908;BME280;64365;-1.756;110.040;2023-01-29T06:40:22;102728.25;;;5.42;74.39
64908;BME280;64365;-1.756;110.040;2023-01-29T06:42:49;102725.66;;;5.37;74.56
64908;BME280;64365;-1.756;110.040;2023-01-29T06:45:17;102738.44;;;5.25;74.96
64908;BME280;64365;-1.756;110.040;2023-01-29T06:47:43;102736.31;;;5.27;75.24
64908;BME280;64365;-1.756;110.040;2023-01-29T06:50:10;102736.88;;;5.23;75.27
64908;BME280;64365;-1.756;110.040;2023-01-29T06:52:37;102741.41;;;5.18;75.21
64908;BME280;64365;-1.756;110.040;2023-01-29T06:55:04;102735.03;;;5.24;75.56
64908;BME280;64365;-1.756;110.040;2023-01-29T06:57:31;102715.84;;;5.18;74.67
64908;BME280;64365;-1.756;110.040;2023-01-29T06:59:58;102716.47;;;5.10;75.61
64908;BME280;64365;-1.756;110.040;2023-01-29T07:02:26;102717.50;;;5.09;75.17
64908;BME280;64365;-1.756;110.040;2023-01-29T07:04:52;102711.72;;;5.07;75.34
64908;BME280;64365;-1.756;110.040;2023-01-29T07:07:19;102709.25;;;4.92;75.26
64908;BME280;64365;-1.756;110.040;2023-01-29T07:09:45;102720.50;;;4.97;75.40
64908;BME280;64365;-1.756;110.040;2023-01-29T07:12:12;102710.34;;;4.85;76.58
64908;BME280;64365;-1.756;110.040;2023-01-29T07:14:38;102720.22;;;4.99;75.66
64908;BME280;64365;-1.756;110.040;2023-01-29T07:17:05;102730.81;;;4.94;75.31
64908;BME280;64365;-1.756;110.040;2023-01-29T07:19:33;102723.75;;;4.89;76.57
64908;BME280;64365;-1.756;110.040;2023-01-29T07:22:00;102726.06;;;4.96;75.80
64908;BME280;64365;-1.756;110.040;2023-01-29T07:24:28;102728.41;;;4.97;76.20
64908;BME280;64365;-1.756;110.040;2023-01-29T07:26:55;102726.19;;;5.10;76.20
64908;BME280;64365;-1.756;110.040;2023-01-29T07:29:21;102716.91;;;5.17;75.60
64908;BME280;64365;-1.756;110.040;2023-01-29T07:31:48;102720.16;;;5.09;74.64
64908;BME280;64365;-1.756;110.040;2023-01-29T07:34:14;102727.53;;;5.07;75.60
64908;BME280;64365;-1.756;110.040;2023-01-29T07:36:42;102721.25;;;5.03;74.96
64908;BME280;64365;-1.756;110.040;2023-01-29T07:39:09;102724.94;;;5.02;75.22
64908;BME280;64365;-1.756;110.040;2023-01-29T07:41:35;102723.56;;;5.10;76.55
64908;BME280;64365;-1.756;110.040;2023-01-29T07:44:02;102715.31;;;5.16;74.73
64908;BME280;64365;-1.756;110.040;2023-01-29T07:46:28;102712.69;;;5.16;74.76
64908;BME280;64365;-1.756;110.040;2023-01-29T07:48:56;102711.06;;;5.20;75.21
64908;BME280;64365;-1.756;110.040;2023-01-29T07:51:23;102700.75;;;5.24;73.73
64908;BME280;64365;-1.756;110.040;2023-01-29T07:53:51;102690.25;;;5.19;74.57
64908;BME280;64365;-1.756;110.040;2023-01-29T07:56:18;102693.13;;;5.22;74.62
64908;BME280;64365;-1.756;110.040;2023-01-29T07:58:44;102685.44;;;5.26;74.44
64908;BME280;64365;-1.756;110.040;2023-01-29T08:01:11;102686.72;;;5.29;74.63
64908;BME280;64365;-1.756;110.040;2023-01-29T08:03:37;102673.53;;;5.29;73.92
64908;BME280;64365;-1.756;110.040;2023-01-29T08:06:04;102683.03;;;5.30;74.22
64908;BME280;64365;-1.756;110.040;2023-01-29T08:08:31;102681.69;;;5.32;74.84
64908;BME280;64365;-1.756;110.040;2023-01-29T08:11:01;102686.63;;;5.39;74.45
64908;BME280;64365;-1.756;110.040;2023-01-29T08:13:27;102689.84;;;5.36;74.43
64908;BME280;64365;-1.756;110.040;2023-01-29T08:15:58;102692.13;;;5.43;73.93
64908;BME280;64365;-1.756;110.040;2023-01-29T08:18:25;102689.41;;;5.48;73.43
64908;BME280;64365;-1.756;110.040;2023-01-29T08:20:51;102691.84;;;5.44;73.79
64908;BME280;64365;-1.756;110.040;2023-01-29T08:23:18;102694.53;;;5.39;73.47
64908;BME280;64365;-1.756;110.040;2023-01-29T08:25:45;102694.59;;;5.34;73.85
64908;BME280;64365;-1.756;110.040;2023-01-29T08:28:13;102686.09;;;5.37;74.57
64908;BME280;64365;-1.756;110.040;2023-01-29T08:30:40;102680.56;;;5.38;74.16
64908;BME280;64365;-1.756;110.040;2023-01-29T08:33:08;102679.00;;;5.37;74.18
64908;BME280;64365;-1.756;110.040;2023-01-29T08:35:35;102673.94;;;5.41;74.84
64908;BME280;64365;-1.756;110.040;2023-01-29T08:38:02;102673.31;;;5.49;74.31
64908;BME280;64365;-1.756;110.040;2023-01-29T08:40:31;102662.94;;;5.58;73.39
64908;BME280;64365;-1.756;110.040;2023-01-29T08:42:59;102657.91;;;5.37;73.58
64908;BME280;64365;-1.756;110.040;2023-01-29T08:45:27;102662.50;;;5.51;73.89
64908;BME280;64365;-1.756;110.040;2023-01-29T08:47:54;102659.00;;;5.55;73.85
64908;BME280;64365;-1.756;110.040;2023-01-29T08:50:20;102656.03;;;5.62;73.37
64908;BME280;64365;-1.756;110.040;2023-01-29T08:52:47;102660.59;;;5.56;73.37
64908;BME280;64365;-1.756;110.040;2023-01-29T08:55:14;102665.84;;;5.56;73.17
64908;BME280;64365;-1.756;110.040;2023-01-29T08:57:40;102655.38;;;5.51;73.20
64908;BME280;64365;-1.756;110.040;2023-01-29T09:00:08;102645.69;;;5.66;73.30
64908;BME280;64365;-1.756;110.040;2023-01-29T09:02:37;102648.63;;;5.64;73.88
64908;BME280;64365;-1.756;110.040;2023-01-29T09:05:04;102650.69;;;5.67;72.81
64908;BME280;64365;-1.756;110.040;2023-01-29T09:07:31;102650.41;;;5.69;73.05
64908;BME280;64365;-1.756;110.040;2023-01-29T09:09:57;102646.63;;;5.75;73.42
64908;BME280;64365;-1.756;110.040;2023-01-29T09:12:24;102637.16;;;5.74;73.00
64908;BME280;64365;-1.756;110.040;2023-01-29T09:14:51;102643.38;;;5.83;72.13
64908;BME280;64365;-1.756;110.040;2023-01-29T09:17:18;102643.44;;;5.78;72.96
64908;BME280;64365;-1.756;110.040;2023-01-29T09:19:46;102644.66;;;5.86;72.56
64908;BME280;64365;-1.756;110.040;2023-01-29T09:22:12;102635.44;;;5.83;72.73
64908;BME280;64365;-1.756;110.040;2023-01-29T09:24:39;102646.13;;;5.92;71.77
64908;BME280;64365;-1.756;110.040;2023-01-29T09:27:05;102657.28;;;5.89;72.37
64908;BME280;64365;-1.756;110.040;2023-01-29T09:29:34;102655.13;;;5.91;72.18
64908;BME280;64365;-1.756;110.040;2023-01-29T09:32:00;102655.13;;;5.91;72.09
64908;BME280;64365;-1.756;110.040;2023-01-29T09:34:27;102658.44;;;6.02;73.48
64908;BME280;64365;-1.756;110.040;2023-01-29T09:36:55;102663.56;;;6.12;71.46
64908;BME280;64365;-1.756;110.040;2023-01-29T09:39:21;102659.78;;;5.99;72.05
64908;BME280;64365;-1.756;110.040;2023-01-29T09:41:53;102662.72;;;5.98;72.39
64908;BME280;64365;-1.756;110.040;2023-01-29T09:44:30;102643.44;;;5.97;71.80
64908;BME280;64365;-1.756;110.040;2023-01-29T09:47:01;102648.09;;;6.05;72.43
64908;BME280;64365;-1.756;110.040;2023-01-29T09:49:35;102638.41;;;6.01;71.95
64908;BME280;64365;-1.756;110.040;2023-01-29T09:52:11;102648.09;;;6.05;71.22
64908;BME280;64365;-1.756;110.040;2023-01-29T09:54:47;102652.66;;;6.00;71.52
64908;BME280;64365;-1.756;110.040;2023-01-29T09:57:19;102650.06;;;5.95;72.52
64908;BME280;64365;-1.756;110.040;2023-01-29T09:59:48;102654.50;;;5.99;72.42
64908;BME280;64365;-1.756;110.040;2023-01-29T10:02:26;102641.75;;;6.06;72.87
64908;BME280;64365;-1.756;110.040;2023-01-29T10:05:17;102640.41;;;6.09;71.77
64908;BME280;64365;-1.756;110.040;2023-01-29T10:08:12;102641.75;;;6.06;72.47
64908;BME280;64365;-1.756;110.040;2023-01-29T10:10:48;102635.41;;;6.07;71.29
64908;BME280;64365;-1.756;110.040;2023-01-29T10:13:23;102642.41;;;5.98;71.19
64908;BME280;64365;-1.756;110.040;2023-01-29T10:16:04;102624.31;;;5.86;71.71
64908;BME280;64365;-1.756;110.040;2023-01-29T10:18:43;102624.31;;;5.86;71.83
64908;BME280;64365;-1.756;110.040;2023-01-29T10:21:23;102620.44;;;5.79;71.68
64908;BME280;64365;-1.756;110.040;2023-01-29T10:24:02;102616.47;;;5.81;71.47
64908;BME280;64365;-1.756;110.040;2023-01-29T10:26:35;102619.81;;;5.68;71.78
64908;BME280;64365;-1.756;110.040;2023-01-29T10:29:05;102603.13;;;5.53;72.90
64908;BME280;64365;-1.756;110.040;2023-01-29T10:31:35;102620.72;;;5.58;72.31
64908;BME280;64365;-1.756;110.040;2023-01-29T10:34:09;102604.25;;;5.47;73.38
64908;BME280;64365;-1.756;110.040;2023-01-29T10:36:40;102610.53;;;5.51;73.97
64908;BME280;64365;-1.756;110.040;2023-01-29T10:39:14;102610.13;;;5.63;73.73
64908;BME280;64365;-1.756;110.040;2023-01-29T10:41:44;102605.69;;;5.59;73.25
64908;BME280;64365;-1.756;110.040;2023-01-29T10:44:28;102598.69;;;5.68;73.22
64908;BME280;64365;-1.756;110.040;2023-01-29T10:50:20;102585.44;;;5.73;73.09
64908;BME280;64365;-1.756;110.040;2023-01-29T10:53:02;102594.88;;;5.79;72.82
64908;BME280;64365;-1.756;110.040;2023-01-29T10:55:42;102593.88;;;5.75;72.61
64908;BME280;64365;-1.756;110.040;2023-01-29T10:58:18;102585.81;;;5.66;72.27
64908;BME280;64365;-1.756;110.040;2023-01-29T11:00:48;102579.81;;;5.61;72.58
64908;BME280;64365;-1.756;110.040;2023-01-29T11:03:17;102579.47;;;5.67;73.31
64908;BME280;64365;-1.756;110.040;2023-01-29T11:05:48;102565.69;;;5.70;73.14
64908;BME280;64365;-1.756;110.040;2023-01-29T11:08:19;102576.47;;;5.74;72.70
64908;BME280;64365;-1.756;110.040;2023-01-29T11:10:57;102567.13;;;5.63;73.13
64908;BME280;64365;-1.756;110.040;2023-01-29T11:13:30;102550.50;;;5.43;74.52
64908;BME280;64365;-1.756;110.040;2023-01-29T11:15:57;102554.09;;;5.52;74.48
64908;BME280;64365;-1.756;110.040;2023-01-29T11:18:24;102578.81;;;5.76;74.19
64908;BME280;64365;-1.756;110.040;2023-01-29T11:20:59;102560.47;;;5.84;75.33
64908;BME280;64365;-1.756;110.040;2023-01-29T11:23:29;102567.19;;;5.96;74.66
64908;BME280;64365;-1.756;110.040;2023-01-29T11:25:58;102558.41;;;6.00;73.25
64908;BME280;64365;-1.756;110.040;2023-01-29T11:28:35;102555.50;;;6.02;72.56
64908;BME280;64365;-1.756;110.040;2023-01-29T11:31:03;102557.75;;;5.89;73.32
64908;BME280;64365;-1.756;110.040;2023-01-29T11:33:40;102551.84;;;5.79;73.83
64908;BME280;64365;-1.756;110.040;2023-01-29T11:36:19;102542.66;;;5.76;73.63
64908;BME280;64365;-1.756;110.040;2023-01-29T11:38:46;102541.94;;;5.89;73.15
64908;BME280;64365;-1.756;110.040;2023-01-29T11:41:15;102536.81;;;5.79;73.66
64908;BME280;64365;-1.756;110.040;2023-01-29T11:43:46;102540.38;;;5.69;73.75
64908;BME280;64365;-1.756;110.040;2023-01-29T11:46:14;102533.91;;;5.62;74.54
64908;BME280;64365;-1.756;110.040;2023-01-29T11:48:43;102525.50;;;5.60;74.16
64908;BME280;64365;-1.756;110.040;2023-01-29T11:51:20;102519.94;;;5.61;75.38
64908;BME280;64365;-1.756;110.040;2023-01-29T11:53:50;102513.28;;;5.64;75.43
64908;BME280;64365;-1.756;110.040;2023-01-29T11:56:22;102507.25;;;5.63;75.61
64908;BME280;64365;-1.756;110.040;2023-01-29T11:58:53;102505.03;;;5.70;75.15
64908;BME280;64365;-1.756;110.040;2023-01-29T12:01:29;102502.03;;;5.77;75.41
64908;BME280;64365;-1.756;110.040;2023-01-29T12:03:58;102508.44;;;5.71;75.63
64908;BME280;64365;-1.756;110.040;2023-01-29T12:06:32;102500.03;;;5.69;75.88
64908;BME280;64365;-1.756;110.040;2023-01-29T12:09:02;102495.34;;;5.66;75.67
64908;BME280;64365;-1.756;110.040;2023-01-29T12:11:36;102490.06;;;5.66;76.45
64908;BME280;64365;-1.756;110.040;2023-01-29T12:14:04;102483.06;;;5.75;74.86
64908;BME280;64365;-1.756;110.040;2023-01-29T12:16:36;102482.16;;;5.66;76.01
64908;BME280;64365;-1.756;110.040;2023-01-29T12:19:09;102473.66;;;5.69;75.74
64908;BME280;64365;-1.756;110.040;2023-01-29T12:21:45;102466.72;;;5.73;75.39
64908;BME280;64365;-1.756;110.040;2023-01-29T12:24:24;102465.66;;;5.74;75.75
64908;BME280;64365;-1.756;110.040;2023-01-29T12:27:01;102462.44;;;5.77;76.54
64908;BME280;64365;-1.756;110.040;2023-01-29T12:29:37;102458.56;;;5.88;76.61
64908;BME280;64365;-1.756;110.040;2023-01-29T12:32:11;102450.38;;;5.90;75.58
64908;BME280;64365;-1.756;110.040;2023-01-29T12:34:44;102448.94;;;5.98;75.12
64908;BME280;64365;-1.756;110.040;2023-01-29T12:37:18;102434.06;;;6.02;76.13
64908;BME280;64365;-1.756;110.040;2023-01-29T12:39:48;102429.78;;;6.06;74.99
64908;BME280;64365;-1.756;110.040;2023-01-29T12:42:18;102434.25;;;5.92;75.10
64908;BME280;64365;-1.756;110.040;2023-01-29T12:44:49;102423.84;;;5.81;76.72
64908;BME280;64365;-1.756;110.040;2023-01-29T12:47:20;102415.09;;;5.86;75.79
64908;BME280;64365;-1.756;110.040;2023-01-29T12:49:51;102401.09;;;5.85;76.50
64908;BME280;64365;-1.756;110.040;2023-01-29T12:52:22;102390.66;;;5.94;76.61
64908;BME280;64365;-1.756;110.040;2023-01-29T12:54:54;102377.09;;;6.01;75.94
64908;BME280;64365;-1.756;110.040;2023-01-29T12:57:33;102371.16;;;6.09;75.90
64908;BME280;64365;-1.756;110.040;2023-01-29T13:00:05;102359.63;;;6.05;75.59
64908;BME280;64365;-1.756;110.040;2023-01-29T13:02:37;102347.69;;;6.07;75.80
64908;BME280;64365;-1.756;110.040;2023-01-29T13:05:16;102357.63;;;6.24;75.10